sensor_id;sensor_type;location;lat;lon;timestamp;temperature;humidity
42095;DHT22;27753;55.724;37.612;2024-03-02T00:00:16;4.40;97.40
42095;DHT22;27753;55.724;37.612;2024-03-02T00:02:46;4.50;97.20
42095;DHT22;27753;55.724;37.612;2024-03-02T00:05:13;4.40;97.20
42095;DHT22;27753;55.724;37.612;2024-03-02T00:07:44;4.40;97.40
42095;DHT22;27753;55.724;37.612;2024-03-02T00:10:13;4.30;97.20
42095;DHT22;27753;55.724;37.612;2024-03-02T00:12:40;4.20;97.20
42095;DHT22;27753;55.724;37.612;2024-03-02T00:17:43;4.30;97.40
42095;DHT22;27753;55.724;37.612;2024-03-02T00:20:15;4.30;97.30
42095;DHT22;27753;55.724;37.612;2024-03-02T00:22:43;4.30;97.40
42095;DHT22;27753;55.724;37.612;2024-03-02T00:25:09;4.30;97.40
42095;DHT22;27753;55.724;37.612;2024-03-02T00:27:36;4.30;97.30
42095;DHT22;27753;55.724;37.612;2024-03-02T00:30:26;4.40;97.10
42095;DHT22;27753;55.724;37.612;2024-03-02T00:32:53;4.40;97.20
42095;DHT22;27753;55.724;37.612;2024-03-02T00:35:20;4.30;97.20
42095;DHT22;27753;55.724;37.612;2024-03-02T00:37:48;4.40;97.20
42095;DHT22;27753;55.724;37.612;2024-03-02T00:40:15;4.40;97.40
42095;DHT22;27753;55.724;37.612;2024-03-02T00:42:41;4.40;97.10
42095;DHT22;27753;55.724;37.612;2024-03-02T00:45:10;4.40;97.00
42095;DHT22;27753;55.724;37.612;2024-03-02T00:47:39;4.40;97.00
42095;DHT22;27753;55.724;37.612;2024-03-02T00:50:05;4.40;97.00
42095;DHT22;27753;55.724;37.612;2024-03-02T00:52:32;4.30;97.00
42095;DHT22;27753;55.724;37.612;2024-03-02T00:54:58;4.30;97.00
42095;DHT22;27753;55.724;37.612;2024-03-02T00:57:25;4.30;97.10
42095;DHT22;27753;55.724;37.612;2024-03-02T00:59:52;4.30;97.10
42095;DHT22;27753;55.724;37.612;2024-03-02T01:02:18;4.30;96.90
42095;DHT22;27753;55.724;37.612;2024-03-02T01:04:46;4.30;97.00
42095;DHT22;27753;55.724;37.612;2024-03-02T01:07:11;4.30;97.10
42095;DHT22;27753;55.724;37.612;2024-03-02T01:09:37;4.30;97.10
42095;DHT22;27753;55.724;37.612;2024-03-02T01:12:03;4.30;97.10
42095;DHT22;27753;55.724;37.612;2024-03-02T01:14:30;4.30;97.00
42095;DHT22;27753;55.724;37.612;2024-03-02T01:16:57;4.30;97.00
42095;DHT22;27753;55.724;37.612;2024-03-02T01:19:23;4.20;97.20
42095;DHT22;27753;55.724;37.612;2024-03-02T01:21:49;4.20;97.20
42095;DHT22;27753;55.724;37.612;2024-03-02T01:24:17;4.10;97.20
42095;DHT22;27753;55.724;37.612;2024-03-02T01:26:43;4.20;97.20
42095;DHT22;27753;55.724;37.612;2024-03-02T01:29:09;4.20;97.30
42095;DHT22;27753;55.724;37.612;2024-03-02T01:31:35;4.20;97.30
42095;DHT22;27753;55.724;37.612;2024-03-02T01:34:01;4.30;97.20
42095;DHT22;27753;55.724;37.612;2024-03-02T01:36:27;4.30;97.10
42095;DHT22;27753;55.724;37.612;2024-03-02T01:38:53;4.30;97.00
42095;DHT22;27753;55.724;37.612;2024-03-02T01:41:18;4.30;97.10
42095;DHT22;27753;55.724;37.612;2024-03-02T01:43:44;4.30;97.10
42095;DHT22;27753;55.724;37.612;2024-03-02T01:46:10;4.30;97.00
42095;DHT22;27753;55.724;37.612;2024-03-02T01:48:36;4.30;97.00
42095;DHT22;27753;55.724;37.612;2024-03-02T01:51:02;4.30;97.10
42095;DHT22;27753;55.724;37.612;2024-03-02T01:53:28;4.30;97.00
42095;DHT22;27753;55.724;37.612;2024-03-02T01:55:54;4.30;97.00
42095;DHT22;27753;55.724;37.612;2024-03-02T01:58:20;4.30;97.00
42095;DHT22;27753;55.724;37.612;2024-03-02T02:00:46;4.30;97.00
42095;DHT22;27753;55.724;37.612;2024-03-02T02:03:13;4.30;97.00
42095;DHT22;27753;55.724;37.612;2024-03-02T02:05:42;4.30;97.00
42095;DHT22;27753;55.724;37.612;2024-03-02T02:08:08;4.30;96.90
42095;DHT22;27753;55.724;37.612;2024-03-02T02:10:33;4.30;96.90
42095;DHT22;27753;55.724;37.612;2024-03-02T02:13:00;4.30;97.00
42095;DHT22;27753;55.724;37.612;2024-03-02T02:15:29;4.30;96.90
42095;DHT22;27753;55.724;37.612;2024-03-02T02:17:57;4.30;96.90
42095;DHT22;27753;55.724;37.612;2024-03-02T02:20:24;4.40;96.90
42095;DHT22;27753;55.724;37.612;2024-03-02T02:22:59;4.30;96.90
42095;DHT22;27753;55.724;37.612;2024-03-02T02:25:26;4.40;96.80
42095;DHT22;27753;55.724;37.612;2024-03-02T02:27:52;4.40;96.80
42095;DHT22;27753;55.724;37.612;2024-03-02T02:30:26;4.40;96.70
42095;DHT22;27753;55.724;37.612;2024-03-02T02:32:52;4.40;96.50
42095;DHT22;27753;55.724;37.612;2024-03-02T02:35:18;4.40;96.50
42095;DHT22;27753;55.724;37.612;2024-03-02T02:37:45;4.40;96.60
42095;DHT22;27753;55.724;37.612;2024-03-02T02:40:12;4.40;96.60
42095;DHT22;27753;55.724;37.612;2024-03-02T02:42:38;4.40;96.60
42095;DHT22;27753;55.724;37.612;2024-03-02T02:45:05;4.40;96.60
42095;DHT22;27753;55.724;37.612;2024-03-02T02:47:31;4.40;96.50
42095;DHT22;27753;55.724;37.612;2024-03-02T02:50:06;4.40;96.50
42095;DHT22;27753;55.724;37.612;2024-03-02T02:52:36;4.40;96.30
42095;DHT22;27753;55.724;37.612;2024-03-02T02:55:04;4.40;96.40
42095;DHT22;27753;55.724;37.612;2024-03-02T02:57:31;4.30;96.50
42095;DHT22;27753;55.724;37.612;2024-03-02T03:00:02;4.10;96.40
42095;DHT22;27753;55.724;37.612;2024-03-02T03:02:31;4.00;96.50
42095;DHT22;27753;55.724;37.612;2024-03-02T03:04:56;3.90;96.70
42095;DHT22;27753;55.724;37.612;2024-03-02T03:07:23;3.90;96.90
42095;DHT22;27753;55.724;37.612;2024-03-02T03:09:48;3.90;96.90
42095;DHT22;27753;55.724;37.612;2024-03-02T03:12:14;3.90;97.00
42095;DHT22;27753;55.724;37.612;2024-03-02T03:14:40;3.90;97.00
42095;DHT22;27753;55.724;37.612;2024-03-02T03:17:06;3.90;97.10
42095;DHT22;27753;55.724;37.612;2024-03-02T03:19:33;3.90;97.10
42095;DHT22;27753;55.724;37.612;2024-03-02T03:21:59;4.00;97.10
42095;DHT22;27753;55.724;37.612;2024-03-02T03:24:25;4.00;97.10
42095;DHT22;27753;55.724;37.612;2024-03-02T03:26:51;4.10;97.10
42095;DHT22;27753;55.724;37.612;2024-03-02T03:29:16;4.00;97.10
42095;DHT22;27753;55.724;37.612;2024-03-02T03:31:42;4.00;97.10
42095;DHT22;27753;55.724;37.612;2024-03-02T03:34:08;4.00;97.20
42095;DHT22;27753;55.724;37.612;2024-03-02T03:36:34;3.90;97.20
42095;DHT22;27753;55.724;37.612;2024-03-02T03:39:00;3.90;97.20
42095;DHT22;27753;55.724;37.612;2024-03-02T03:41:27;3.90;97.20
42095;DHT22;27753;55.724;37.612;2024-03-02T03:43:53;3.90;97.20
42095;DHT22;27753;55.724;37.612;2024-03-02T03:46:19;3.80;97.20
42095;DHT22;27753;55.724;37.612;2024-03-02T03:48:44;3.80;97.40
42095;DHT22;27753;55.724;37.612;2024-03-02T03:51:10;3.70;97.40
42095;DHT22;27753;55.724;37.612;2024-03-02T03:53:36;3.70;97.60
42095;DHT22;27753;55.724;37.612;2024-03-02T03:56:02;3.70;97.70
42095;DHT22;27753;55.724;37.612;2024-03-02T03:58:28;3.80;97.70
42095;DHT22;27753;55.724;37.612;2024-03-02T04:00:53;3.90;97.70
42095;DHT22;27753;55.724;37.612;2024-03-02T04:03:19;3.90;97.60
42095;DHT22;27753;55.724;37.612;2024-03-02T04:05:45;4.00;97.50
42095;DHT22;27753;55.724;37.612;2024-03-02T04:08:11;4.00;97.40
42095;DHT22;27753;55.724;37.612;2024-03-02T04:10:37;4.10;97.40
42095;DHT22;27753;55.724;37.612;2024-03-02T04:13:03;4.10;97.30
42095;DHT22;27753;55.724;37.612;2024-03-02T04:15:29;4.10;97.20
42095;DHT22;27753;55.724;37.612;2024-03-02T04:17:55;4.00;97.20
42095;DHT22;27753;55.724;37.612;2024-03-02T04:20:21;3.90;97.50
42095;DHT22;27753;55.724;37.612;2024-03-02T04:22:46;3.90;97.40
42095;DHT22;27753;55.724;37.612;2024-03-02T04:25:12;3.90;97.30
42095;DHT22;27753;55.724;37.612;2024-03-02T04:27:38;3.90;97.30
42095;DHT22;27753;55.724;37.612;2024-03-02T04:30:05;3.90;97.40
42095;DHT22;27753;55.724;37.612;2024-03-02T04:32:31;4.00;97.40
42095;DHT22;27753;55.724;37.612;2024-03-02T04:34:57;4.00;97.30
42095;DHT22;27753;55.724;37.612;2024-03-02T04:37:23;4.00;97.30
42095;DHT22;27753;55.724;37.612;2024-03-02T04:39:48;4.00;97.30
42095;DHT22;27753;55.724;37.612;2024-03-02T04:42:14;4.10;97.30
42095;DHT22;27753;55.724;37.612;2024-03-02T04:44:40;4.10;97.10
42095;DHT22;27753;55.724;37.612;2024-03-02T04:47:06;4.00;97.00
42095;DHT22;27753;55.724;37.612;2024-03-02T04:49:32;4.00;97.00
42095;DHT22;27753;55.724;37.612;2024-03-02T04:51:57;4.00;97.30
42095;DHT22;27753;55.724;37.612;2024-03-02T04:54:23;4.00;97.00
42095;DHT22;27753;55.724;37.612;2024-03-02T04:56:49;3.90;97.10
42095;DHT22;27753;55.724;37.612;2024-03-02T04:59:18;3.80;97.40
42095;DHT22;27753;55.724;37.612;2024-03-02T05:01:45;3.70;97.40
42095;DHT22;27753;55.724;37.612;2024-03-02T05:04:11;3.70;97.40
42095;DHT22;27753;55.724;37.612;2024-03-02T05:06:40;3.70;97.30
42095;DHT22;27753;55.724;37.612;2024-03-02T05:09:09;3.70;97.20
42095;DHT22;27753;55.724;37.612;2024-03-02T05:11:36;3.60;97.20
42095;DHT22;27753;55.724;37.612;2024-03-02T05:14:07;3.60;97.40
42095;DHT22;27753;55.724;37.612;2024-03-02T05:16:37;3.60;97.60
42095;DHT22;27753;55.724;37.612;2024-03-02T05:19:04;3.60;97.70
42095;DHT22;27753;55.724;37.612;2024-03-02T05:21:32;3.60;97.60
42095;DHT22;27753;55.724;37.612;2024-03-02T05:23:59;3.70;97.60
42095;DHT22;27753;55.724;37.612;2024-03-02T05:26:25;3.60;97.60
42095;DHT22;27753;55.724;37.612;2024-03-02T05:28:51;3.60;97.70
42095;DHT22;27753;55.724;37.612;2024-03-02T05:31:16;3.70;97.70
42095;DHT22;27753;55.724;37.612;2024-03-02T05:33:43;3.80;97.60
42095;DHT22;27753;55.724;37.612;2024-03-02T05:36:09;3.90;97.30
42095;DHT22;27753;55.724;37.612;2024-03-02T05:38:35;3.90;97.10
42095;DHT22;27753;55.724;37.612;2024-03-02T05:41:01;4.00;97.10
42095;DHT22;27753;55.724;37.612;2024-03-02T05:43:27;4.00;97.20
42095;DHT22;27753;55.724;37.612;2024-03-02T05:45:53;3.90;97.00
42095;DHT22;27753;55.724;37.612;2024-03-02T05:48:18;3.90;97.00
42095;DHT22;27753;55.724;37.612;2024-03-02T05:50:44;3.90;96.90
42095;DHT22;27753;55.724;37.612;2024-03-02T05:53:10;3.90;97.00
42095;DHT22;27753;55.724;37.612;2024-03-02T05:55:36;4.10;97.00
42095;DHT22;27753;55.724;37.612;2024-03-02T05:58:02;4.20;96.90
42095;DHT22;27753;55.724;37.612;2024-03-02T06:00:58;4.30;96.70
42095;DHT22;27753;55.724;37.612;2024-03-02T06:03:24;4.20;96.60
42095;DHT22;27753;55.724;37.612;2024-03-02T06:05:49;4.10;96.40
42095;DHT22;27753;55.724;37.612;2024-03-02T06:08:16;3.90;96.60
42095;DHT22;27753;55.724;37.612;2024-03-02T06:10:43;3.80;96.90
42095;DHT22;27753;55.724;37.612;2024-03-02T06:13:09;3.70;97.00
42095;DHT22;27753;55.724;37.612;2024-03-02T06:15:35;3.70;97.10
42095;DHT22;27753;55.724;37.612;2024-03-02T06:18:01;3.70;97.20
42095;DHT22;27753;55.724;37.612;2024-03-02T06:20:27;3.80;97.20
42095;DHT22;27753;55.724;37.612;2024-03-02T06:22:56;3.70;97.10
42095;DHT22;27753;55.724;37.612;2024-03-02T06:25:22;3.80;97.20
42095;DHT22;27753;55.724;37.612;2024-03-02T06:27:48;3.80;97.10
42095;DHT22;27753;55.724;37.612;2024-03-02T06:30:14;3.90;97.00
42095;DHT22;27753;55.724;37.612;2024-03-02T06:32:40;3.90;96.70
42095;DHT22;27753;55.724;37.612;2024-03-02T06:35:06;3.80;96.80
42095;DHT22;27753;55.724;37.612;2024-03-02T06:37:36;3.80;96.80
42095;DHT22;27753;55.724;37.612;2024-03-02T06:40:02;3.70;97.00
42095;DHT22;27753;55.724;37.612;2024-03-02T06:42:28;3.80;97.00
42095;DHT22;27753;55.724;37.612;2024-03-02T06:44:59;3.90;97.00
42095;DHT22;27753;55.724;37.612;2024-03-02T06:47:24;4.10;97.00
42095;DHT22;27753;55.724;37.612;2024-03-02T06:49:50;4.00;96.60
42095;DHT22;27753;55.724;37.612;2024-03-02T06:52:17;4.00;96.80
42095;DHT22;27753;55.724;37.612;2024-03-02T06:54:42;3.90;96.90
42095;DHT22;27753;55.724;37.612;2024-03-02T06:57:08;4.00;97.20
42095;DHT22;27753;55.724;37.612;2024-03-02T06:59:34;4.00;97.20
42095;DHT22;27753;55.724;37.612;2024-03-02T07:02:00;4.10;97.30
42095;DHT22;27753;55.724;37.612;2024-03-02T07:04:27;4.20;97.10
42095;DHT22;27753;55.724;37.612;2024-03-02T07:06:53;4.40;96.90
42095;DHT22;27753;55.724;37.612;2024-03-02T07:09:19;4.50;96.70
42095;DHT22;27753;55.724;37.612;2024-03-02T07:11:48;4.50;95.90
42095;DHT22;27753;55.724;37.612;2024-03-02T07:14:14;4.30;96.00
42095;DHT22;27753;55.724;37.612;2024-03-02T07:16:40;4.10;96.00
42095;DHT22;27753;55.724;37.612;2024-03-02T07:19:08;4.00;96.30
42095;DHT22;27753;55.724;37.612;2024-03-02T07:21:34;4.10;96.70
42095;DHT22;27753;55.724;37.612;2024-03-02T07:24:00;4.20;96.60
42095;DHT22;27753;55.724;37.612;2024-03-02T07:26:29;4.10;96.60
42095;DHT22;27753;55.724;37.612;2024-03-02T07:28:57;4.10;96.50
42095;DHT22;27753;55.724;37.612;2024-03-02T07:31:23;4.00;96.50
42095;DHT22;27753;55.724;37.612;2024-03-02T07:33:48;3.90;96.90
42095;DHT22;27753;55.724;37.612;2024-03-02T07:36:14;3.90;97.10
42095;DHT22;27753;55.724;37.612;2024-03-02T07:38:40;4.00;97.20
42095;DHT22;27753;55.724;37.612;2024-03-02T07:41:07;3.90;97.20
42095;DHT22;27753;55.724;37.612;2024-03-02T07:43:33;4.00;97.40
42095;DHT22;27753;55.724;37.612;2024-03-02T07:45:59;4.10;97.60
42095;DHT22;27753;55.724;37.612;2024-03-02T07:48:26;4.30;97.60
42095;DHT22;27753;55.724;37.612;2024-03-02T07:50:52;4.30;97.20
42095;DHT22;27753;55.724;37.612;2024-03-02T07:53:18;4.40;97.00
42095;DHT22;27753;55.724;37.612;2024-03-02T07:55:44;4.50;96.90
42095;DHT22;27753;55.724;37.612;2024-03-02T07:58:10;4.40;96.80
42095;DHT22;27753;55.724;37.612;2024-03-02T08:00:39;4.30;97.00
42095;DHT22;27753;55.724;37.612;2024-03-02T08:03:06;4.30;97.40
42095;DHT22;27753;55.724;37.612;2024-03-02T08:05:32;4.60;97.10
42095;DHT22;27753;55.724;37.612;2024-03-02T08:07:58;4.80;96.60
42095;DHT22;27753;55.724;37.612;2024-03-02T08:10:24;4.90;96.10
42095;DHT22;27753;55.724;37.612;2024-03-02T08:12:53;4.90;95.70
42095;DHT22;27753;55.724;37.612;2024-03-02T08:15:19;4.90;95.90
42095;DHT22;27753;55.724;37.612;2024-03-02T08:17:45;5.10;95.90
42095;DHT22;27753;55.724;37.612;2024-03-02T08:20:14;5.40;95.30
42095;DHT22;27753;55.724;37.612;2024-03-02T08:22:40;5.90;95.30
42095;DHT22;27753;55.724;37.612;2024-03-02T08:25:06;6.70;95.10
42095;DHT22;27753;55.724;37.612;2024-03-02T08:27:33;7.50;93.80
42095;DHT22;27753;55.724;37.612;2024-03-02T08:29:59;8.40;92.50
42095;DHT22;27753;55.724;37.612;2024-03-02T08:32:25;9.80;90.90
42095;DHT22;27753;55.724;37.612;2024-03-02T08:34:51;10.70;85.50
42095;DHT22;27753;55.724;37.612;2024-03-02T08:37:17;10.70;82.80
42095;DHT22;27753;55.724;37.612;2024-03-02T08:43:41;10.60;80.20
42095;DHT22;27753;55.724;37.612;2024-03-02T08:46:56;10.20;80.70
42095;DHT22;27753;55.724;37.612;2024-03-02T08:53:24;8.50;81.20
42095;DHT22;27753;55.724;37.612;2024-03-02T08:55:50;7.40;83.80
42095;DHT22;27753;55.724;37.612;2024-03-02T08:58:16;6.80;86.10
42095;DHT22;27753;55.724;37.612;2024-03-02T09:00:42;6.40;87.90
42095;DHT22;27753;55.724;37.612;2024-03-02T09:03:09;6.30;89.20
42095;DHT22;27753;55.724;37.612;2024-03-02T09:05:38;6.20;90.20
42095;DHT22;27753;55.724;37.612;2024-03-02T09:08:05;6.20;90.50
42095;DHT22;27753;55.724;37.612;2024-03-02T09:10:31;6.40;90.40
42095;DHT22;27753;55.724;37.612;2024-03-02T09:12:57;6.50;90.20
42095;DHT22;27753;55.724;37.612;2024-03-02T09:15:23;6.50;90.30
42095;DHT22;27753;55.724;37.612;2024-03-02T09:17:49;6.70;90.20
42095;DHT22;27753;55.724;37.612;2024-03-02T09:20:16;6.70;89.90
42095;DHT22;27753;55.724;37.612;2024-03-02T09:22:42;6.90;89.80
42095;DHT22;27753;55.724;37.612;2024-03-02T09:25:08;6.80;89.40
42095;DHT22;27753;55.724;37.612;2024-03-02T09:27:37;6.60;90.30
42095;DHT22;27753;55.724;37.612;2024-03-02T09:30:05;6.50;90.40
42095;DHT22;27753;55.724;37.612;2024-03-02T09:32:31;6.60;90.70
42095;DHT22;27753;55.724;37.612;2024-03-02T09:34:57;6.50;90.50
42095;DHT22;27753;55.724;37.612;2024-03-02T09:37:23;6.50;90.80
42095;DHT22;27753;55.724;37.612;2024-03-02T09:39:49;6.50;90.60
42095;DHT22;27753;55.724;37.612;2024-03-02T09:42:15;6.40;91.10
42095;DHT22;27753;55.724;37.612;2024-03-02T09:44:42;6.60;90.70
42095;DHT22;27753;55.724;37.612;2024-03-02T09:47:08;6.80;90.40
42095;DHT22;27753;55.724;37.612;2024-03-02T09:49:34;7.00;89.80
42095;DHT22;27753;55.724;37.612;2024-03-02T09:52:03;6.70;89.30
42095;DHT22;27753;55.724;37.612;2024-03-02T09:54:30;6.40;90.20
42095;DHT22;27753;55.724;37.612;2024-03-02T09:56:59;6.40;90.40
42095;DHT22;27753;55.724;37.612;2024-03-02T09:59:28;6.50;90.80
42095;DHT22;27753;55.724;37.612;2024-03-02T10:02:04;6.80;90.50
42095;DHT22;27753;55.724;37.612;2024-03-02T10:04:33;7.10;89.50
42095;DHT22;27753;55.724;37.612;2024-03-02T10:07:16;7.30;88.60
42095;DHT22;27753;55.724;37.612;2024-03-02T10:09:48;7.40;88.30
42095;DHT22;27753;55.724;37.612;2024-03-02T10:12:18;7.60;87.90
42095;DHT22;27753;55.724;37.612;2024-03-02T10:14:44;8.30;87.70
42095;DHT22;27753;55.724;37.612;2024-03-02T10:17:12;9.20;86.00
42095;DHT22;27753;55.724;37.612;2024-03-02T10:19:39;10.00;82.70
42095;DHT22;27753;55.724;37.612;2024-03-02T10:22:09;10.30;80.80
42095;DHT22;27753;55.724;37.612;2024-03-02T10:24:40;9.80;78.50
42095;DHT22;27753;55.724;37.612;2024-03-02T10:27:23;8.80;79.90
42095;DHT22;27753;55.724;37.612;2024-03-02T10:29:49;8.00;82.20
42095;DHT22;27753;55.724;37.612;2024-03-02T10:32:15;7.30;84.60
42095;DHT22;27753;55.724;37.612;2024-03-02T10:34:45;6.90;86.20
42095;DHT22;27753;55.724;37.612;2024-03-02T10:37:12;6.70;87.30
42095;DHT22;27753;55.724;37.612;2024-03-02T10:39:39;6.70;88.30
42095;DHT22;27753;55.724;37.612;2024-03-02T10:42:06;6.70;87.70
42095;DHT22;27753;55.724;37.612;2024-03-02T10:44:33;6.70;88.10
42095;DHT22;27753;55.724;37.612;2024-03-02T10:47:03;6.60;88.90
42095;DHT22;27753;55.724;37.612;2024-03-02T10:49:30;6.50;89.10
42095;DHT22;27753;55.724;37.612;2024-03-02T10:52:00;6.50;89.00
42095;DHT22;27753;55.724;37.612;2024-03-02T10:54:27;6.40;89.80
42095;DHT22;27753;55.724;37.612;2024-03-02T10:57:01;6.40;90.20
42095;DHT22;27753;55.724;37.612;2024-03-02T10:59:33;6.70;89.50
42095;DHT22;27753;55.724;37.612;2024-03-02T11:02:01;6.90;88.50
42095;DHT22;27753;55.724;37.612;2024-03-02T11:04:29;7.00;88.30
42095;DHT22;27753;55.724;37.612;2024-03-02T11:07:08;7.10;88.40
42095;DHT22;27753;55.724;37.612;2024-03-02T11:10:33;7.20;88.10
42095;DHT22;27753;55.724;37.612;2024-03-02T11:13:38;7.30;87.90
42095;DHT22;27753;55.724;37.612;2024-03-02T11:16:36;7.50;87.10
42095;DHT22;27753;55.724;37.612;2024-03-02T11:19:07;7.60;86.50
42095;DHT22;27753;55.724;37.612;2024-03-02T11:21:35;7.60;86.10
42095;DHT22;27753;55.724;37.612;2024-03-02T11:26:50;7.60;86.30
42095;DHT22;27753;55.724;37.612;2024-03-02T11:32:22;7.50;86.00
42095;DHT22;27753;55.724;37.612;2024-03-02T11:34:50;7.50;86.10
42095;DHT22;27753;55.724;37.612;2024-03-02T11:37:18;7.50;86.30
42095;DHT22;27753;55.724;37.612;2024-03-02T11:39:49;7.70;86.60
42095;DHT22;27753;55.724;37.612;2024-03-02T11:42:15;7.90;85.90
42095;DHT22;27753;55.724;37.612;2024-03-02T11:44:46;8.10;85.30
42095;DHT22;27753;55.724;37.612;2024-03-02T11:47:16;8.30;84.00
42095;DHT22;27753;55.724;37.612;2024-03-02T11:49:50;8.30;83.50
42095;DHT22;27753;55.724;37.612;2024-03-02T11:52:17;8.30;83.40
42095;DHT22;27753;55.724;37.612;2024-03-02T11:54:47;8.50;83.50
42095;DHT22;27753;55.724;37.612;2024-03-02T11:57:23;8.80;83.10
42095;DHT22;27753;55.724;37.612;2024-03-02T11:59:49;8.90;81.10
42095;DHT22;27753;55.724;37.612;2024-03-02T12:02:17;8.60;81.80
42095;DHT22;27753;55.724;37.612;2024-03-02T12:04:44;8.70;82.20
42095;DHT22;27753;55.724;37.612;2024-03-02T12:07:11;8.80;81.80
42095;DHT22;27753;55.724;37.612;2024-03-02T12:09:38;8.70;81.00
42095;DHT22;27753;55.724;37.612;2024-03-02T12:12:05;8.50;80.80
42095;DHT22;27753;55.724;37.612;2024-03-02T12:14:32;8.10;81.30
42095;DHT22;27753;55.724;37.612;2024-03-02T12:16:58;7.80;82.10
42095;DHT22;27753;55.724;37.612;2024-03-02T12:19:26;7.60;83.20
42095;DHT22;27753;55.724;37.612;2024-03-02T12:21:52;7.50;83.00
42095;DHT22;27753;55.724;37.612;2024-03-02T12:24:18;7.30;83.40
42095;DHT22;27753;55.724;37.612;2024-03-02T12:26:45;7.30;84.00
42095;DHT22;27753;55.724;37.612;2024-03-02T12:29:12;7.30;83.50
42095;DHT22;27753;55.724;37.612;2024-03-02T12:31:39;7.10;84.70
42095;DHT22;27753;55.724;37.612;2024-03-02T12:34:05;7.30;85.20
42095;DHT22;27753;55.724;37.612;2024-03-02T12:36:36;7.60;84.60
42095;DHT22;27753;55.724;37.612;2024-03-02T12:39:02;7.70;82.90
42095;DHT22;27753;55.724;37.612;2024-03-02T12:41:28;7.50;83.00
42095;DHT22;27753;55.724;37.612;2024-03-02T12:43:54;7.20;84.10
42095;DHT22;27753;55.724;37.612;2024-03-02T12:46:20;7.20;84.30
42095;DHT22;27753;55.724;37.612;2024-03-02T12:48:46;6.90;84.90
42095;DHT22;27753;55.724;37.612;2024-03-02T12:51:12;6.90;85.60
42095;DHT22;27753;55.724;37.612;2024-03-02T12:53:38;6.80;85.00
42095;DHT22;27753;55.724;37.612;2024-03-02T12:56:10;6.80;85.70
42095;DHT22;27753;55.724;37.612;2024-03-02T12:58:40;7.00;85.00
42095;DHT22;27753;55.724;37.612;2024-03-02T13:01:09;6.90;84.40
42095;DHT22;27753;55.724;37.612;2024-03-02T13:03:39;6.70;85.60
42095;DHT22;27753;55.724;37.612;2024-03-02T13:06:06;6.50;85.40
42095;DHT22;27753;55.724;37.612;2024-03-02T13:08:33;6.30;86.10
42095;DHT22;27753;55.724;37.612;2024-03-02T13:10:59;6.30;86.10
42095;DHT22;27753;55.724;37.612;2024-03-02T13:13:25;6.00;86.50
42095;DHT22;27753;55.724;37.612;2024-03-02T13:15:55;5.80;87.50
42095;DHT22;27753;55.724;37.612;2024-03-02T13:18:22;5.60;87.80
42095;DHT22;27753;55.724;37.612;2024-03-02T13:20:48;5.40;89.00
42095;DHT22;27753;55.724;37.612;2024-03-02T13:23:14;5.30;89.60
42095;DHT22;27753;55.724;37.612;2024-03-02T13:25:40;5.40;89.70
42095;DHT22;27753;55.724;37.612;2024-03-02T13:28:06;5.30;89.50
42095;DHT22;27753;55.724;37.612;2024-03-02T13:30:32;5.20;90.00
42095;DHT22;27753;55.724;37.612;2024-03-02T13:32:59;5.10;90.00
42095;DHT22;27753;55.724;37.612;2024-03-02T13:35:27;5.00;90.40
42095;DHT22;27753;55.724;37.612;2024-03-02T13:37:53;4.90;90.50
42095;DHT22;27753;55.724;37.612;2024-03-02T13:40:19;4.80;90.50
42095;DHT22;27753;55.724;37.612;2024-03-02T13:42:49;4.80;90.70
42095;DHT22;27753;55.724;37.612;2024-03-02T13:45:16;4.80;90.70
42095;DHT22;27753;55.724;37.612;2024-03-02T13:47:43;4.70;90.60
42095;DHT22;27753;55.724;37.612;2024-03-02T13:50:10;4.80;90.70
42095;DHT22;27753;55.724;37.612;2024-03-02T13:52:35;4.80;90.80
42095;DHT22;27753;55.724;37.612;2024-03-02T13:55:01;4.70;90.80
42095;DHT22;27753;55.724;37.612;2024-03-02T13:57:27;4.70;90.90
42095;DHT22;27753;55.724;37.612;2024-03-02T13:59:54;4.50;90.90
42095;DHT22;27753;55.724;37.612;2024-03-02T14:02:20;4.40;91.00
42095;DHT22;27753;55.724;37.612;2024-03-02T14:04:48;4.40;90.90
42095;DHT22;27753;55.724;37.612;2024-03-02T14:07:15;4.30;91.20
42095;DHT22;27753;55.724;37.612;2024-03-02T14:09:41;4.20;91.40
42095;DHT22;27753;55.724;37.612;2024-03-02T14:12:07;4.20;91.20
42095;DHT22;27753;55.724;37.612;2024-03-02T14:14:33;4.10;91.30
42095;DHT22;27753;55.724;37.612;2024-03-02T14:16:59;4.00;91.50
42095;DHT22;27753;55.724;37.612;2024-03-02T14:19:32;4.10;91.50
42095;DHT22;27753;55.724;37.612;2024-03-02T14:21:58;4.10;91.50
42095;DHT22;27753;55.724;37.612;2024-03-02T14:24:28;4.10;91.50
42095;DHT22;27753;55.724;37.612;2024-03-02T14:26:55;4.10;91.50
42095;DHT22;27753;55.724;37.612;2024-03-02T14:29:22;4.10;91.30
42095;DHT22;27753;55.724;37.612;2024-03-02T14:31:49;4.10;91.40
42095;DHT22;27753;55.724;37.612;2024-03-02T14:34:15;4.10;91.50
42095;DHT22;27753;55.724;37.612;2024-03-02T14:36:41;4.10;91.60
42095;DHT22;27753;55.724;37.612;2024-03-02T14:39:09;4.10;91.40
42095;DHT22;27753;55.724;37.612;2024-03-02T14:41:36;4.10;91.40
42095;DHT22;27753;55.724;37.612;2024-03-02T14:44:02;4.00;91.40
42095;DHT22;27753;55.724;37.612;2024-03-02T14:46:28;4.00;91.50
42095;DHT22;27753;55.724;37.612;2024-03-02T14:48:55;3.90;91.60
42095;DHT22;27753;55.724;37.612;2024-03-02T14:51:21;3.80;91.60
42095;DHT22;27753;55.724;37.612;2024-03-02T14:53:46;3.80;92.10
42095;DHT22;27753;55.724;37.612;2024-03-02T14:56:12;3.70;91.80
42095;DHT22;27753;55.724;37.612;2024-03-02T14:59:12;3.70;91.90
42095;DHT22;27753;55.724;37.612;2024-03-02T15:01:57;3.60;92.10
42095;DHT22;27753;55.724;37.612;2024-03-02T15:04:23;3.60;92.10
42095;DHT22;27753;55.724;37.612;2024-03-02T15:06:49;3.50;92.20
42095;DHT22;27753;55.724;37.612;2024-03-02T15:09:15;3.40;92.40
42095;DHT22;27753;55.724;37.612;2024-03-02T15:11:44;3.50;92.50
42095;DHT22;27753;55.724;37.612;2024-03-02T15:14:10;3.50;92.50
42095;DHT22;27753;55.724;37.612;2024-03-02T15:16:36;3.50;92.50
42095;DHT22;27753;55.724;37.612;2024-03-02T15:19:02;3.50;92.50
42095;DHT22;27753;55.724;37.612;2024-03-02T15:21:28;3.40;92.60
42095;DHT22;27753;55.724;37.612;2024-03-02T15:23:54;3.40;92.70
42095;DHT22;27753;55.724;37.612;2024-03-02T15:26:20;3.40;92.70
42095;DHT22;27753;55.724;37.612;2024-03-02T15:28:49;3.40;92.80
42095;DHT22;27753;55.724;37.612;2024-03-02T15:31:15;3.40;92.80
42095;DHT22;27753;55.724;37.612;2024-03-02T15:33:42;3.40;92.90
42095;DHT22;27753;55.724;37.612;2024-03-02T15:36:08;3.50;93.00
42095;DHT22;27753;55.724;37.612;2024-03-02T15:38:34;3.50;93.00
42095;DHT22;27753;55.724;37.612;2024-03-02T15:41:05;3.60;92.70
42095;DHT22;27753;55.724;37.612;2024-03-02T15:43:33;3.60;93.00
42095;DHT22;27753;55.724;37.612;2024-03-02T15:46:04;3.70;92.80
42095;DHT22;27753;55.724;37.612;2024-03-02T15:48:30;3.70;92.70